メインページ
METAR-TAF:

METAR-TAF

空港 :

Guaymas, メキシコ

緯度: 27-58N, 経度: 110-56W, 海抜: 27m

現時点の気象観測

当レポートは38分前の23:41(UTC)に作成
南/南西の風 10kt
気温 32°C
湿度 59%
気圧 1007 hPa
視程: 16.1km
高度2000ftの雲はほとんどない, 塔状積雲.

METAR: MMGM 202341Z 20010KT 10SM FEW020TCU 32/23 A2974 RMK 8/200

時間: 17:19 (00:19 UTC)

予報

当レポートは7時間0分前の17:19(UTC)に作成
予報は20日の 18時(UTC)から 21日の 18時(UTC)まで有効
南西の風 12kt
視程: 10km
高度2500ftの雲は散在している
20日の 19時(UTC)から 20日の 23時(UTC)まで一時的に
高度2000ftの千切れ雲あり
21日の 0300時(UTC)から
北/北西の風 12kt
視程: 10km
高度2000ftの雲は散在している
高度25000ftの千切れ雲あり

TAF: MMGM 201719Z 2018/2118 23012KT P6SM SCT025 TEMPO 2019/2023 BKN020 FM210300 34012KT P6SM SCT020 BKN250

4,000以上の空港の気象観測と天気予報(METAR報とTAF報)

利用可能な観測所は地図上に黄色い丸と赤い丸で示す。

丸の上にカーソルを重ねると観測所名を参照できる。

次にクリックすると気象観測と天気予報を参照できる。

マップの切り替え:黒色「×」印の緑ボタンをクリックして拡大、「-」印の緑ボタンをクリックして縮小、緑色の三角印をクリックして隣りの地図に切り替え


METAR-TAF: